Terminal Aerodrome Forecast
Issued by NWS

Home | Current Version | Previous Version | Text Only | Print | Product List | Glossary On
Versions: 1 2 3 4 5 6 7 8 9 10 11 12 13
026
FTUS41 KPHI 241336 AAA
TAFPNE
TAF AMD
KPNE 241336Z 2414/2512 20007KT P6SM BKN100
      TEMPO 2416/2418 6SM -RA OVC050
     FM241800 22012G17KT P6SM OVC050
     FM242300 22007KT P6SM SCT040 BKN090
     FM250400 26005KT P6SM SCT100=

USA.gov is the U.S. government's official web portal to all federal, state and local government web resources and services.